createdAt,value
2022-10-13T00:00:06.897Z,13.20
2022-10-13T00:02:33.421Z,13.31
2022-10-13T00:04:59.862Z,13.35
2022-10-13T00:07:26.359Z,13.35
2022-10-13T00:09:52.830Z,13.39
2022-10-13T00:12:19.711Z,13.50
2022-10-13T00:14:46.405Z,13.35
2022-10-13T00:17:12.866Z,13.22
2022-10-13T00:19:39.327Z,13.30
2022-10-13T00:22:05.744Z,13.24
2022-10-13T00:24:32.197Z,13.12
2022-10-13T00:26:58.671Z,12.96
2022-10-13T00:29:25.217Z,12.80
2022-10-13T00:31:51.635Z,12.69
2022-10-13T00:34:18.151Z,12.77
2022-10-13T00:36:44.609Z,12.87
2022-10-13T00:39:11.035Z,12.80
2022-10-13T00:41:37.530Z,12.97
2022-10-13T00:44:07.198Z,13.00
2022-10-13T00:46:35.947Z,12.90
2022-10-13T00:49:08.033Z,12.96
2022-10-13T00:51:40.615Z,12.87
2022-10-13T00:54:11.451Z,12.63
2022-10-13T00:56:38.885Z,12.60
2022-10-13T00:59:13.686Z,12.62
2022-10-13T01:01:40.271Z,12.76
2022-10-13T01:04:06.801Z,12.82
2022-10-13T01:06:34.064Z,12.76
2022-10-13T01:09:00.514Z,12.60
2022-10-13T01:11:48.139Z,12.78
2022-10-13T01:14:49.359Z,12.78
2022-10-13T01:17:25.402Z,12.94
2022-10-13T01:20:10.889Z,12.93
2022-10-13T01:22:49.540Z,12.79
2022-10-13T01:25:24.545Z,12.78
2022-10-13T01:28:04.313Z,12.75
2022-10-13T01:30:37.720Z,12.74
2022-10-13T01:33:34.033Z,12.76
2022-10-13T01:36:18.852Z,12.64
2022-10-13T01:38:55.195Z,12.45
2022-10-13T01:41:37.553Z,12.42
2022-10-13T01:44:43.231Z,12.41
2022-10-13T01:47:12.098Z,12.55
2022-10-13T01:49:39.175Z,12.63
2022-10-13T01:52:11.205Z,12.54
2022-10-13T01:54:37.713Z,12.48
2022-10-13T01:57:04.300Z,12.43
2022-10-13T01:59:36.293Z,12.39
2022-10-13T02:02:25.214Z,12.38
2022-10-13T02:04:56.348Z,12.54
2022-10-13T02:08:09.002Z,12.63
2022-10-13T02:10:41.368Z,12.61
2022-10-13T02:13:11.744Z,12.74
2022-10-13T02:15:42.646Z,12.68
2022-10-13T02:18:12.952Z,12.57
2022-10-13T02:20:42.412Z,12.54
2022-10-13T02:23:13.527Z,12.52
2022-10-13T02:25:41.368Z,12.53
2022-10-13T02:28:09.253Z,12.37
2022-10-13T02:30:35.965Z,12.31
2022-10-13T02:33:03.076Z,12.26
2022-10-13T02:35:29.990Z,12.32
2022-10-13T02:37:56.849Z,12.34
2022-10-13T02:40:23.292Z,12.37
2022-10-13T02:42:49.782Z,12.20
2022-10-13T02:45:16.559Z,12.19
2022-10-13T02:47:43.044Z,12.12
2022-10-13T02:50:09.708Z,12.17
2022-10-13T02:52:36.346Z,12.12
2022-10-13T02:55:03.017Z,12.12
2022-10-13T02:57:29.535Z,12.12
2022-10-13T02:59:56.008Z,12.24
2022-10-13T03:02:23.280Z,12.25
2022-10-13T03:04:50.804Z,12.23
2022-10-13T03:07:17.353Z,12.16
2022-10-13T03:09:43.982Z,12.20
2022-10-13T03:12:10.607Z,12.23
2022-10-13T03:14:37.330Z,12.13
2022-10-13T03:17:03.826Z,12.14
2022-10-13T03:19:30.618Z,12.19
2022-10-13T03:21:57.047Z,12.00
2022-10-13T03:24:23.582Z,11.88
2022-10-13T03:26:50.027Z,11.89
2022-10-13T03:29:20.782Z,11.93
2022-10-13T03:31:47.227Z,11.97
2022-10-13T03:34:16.346Z,11.92
2022-10-13T03:36:42.908Z,12.00
2022-10-13T03:39:09.454Z,12.05
2022-10-13T03:41:35.910Z,12.01
2022-10-13T03:44:02.475Z,12.04
2022-10-13T03:46:30.438Z,12.04
2022-10-13T03:48:57.194Z,12.03
2022-10-13T03:51:23.863Z,11.97
2022-10-13T03:53:52.075Z,11.90
2022-10-13T03:56:24.399Z,11.95
2022-10-13T03:58:54.531Z,11.93
2022-10-13T04:01:23.133Z,12.00
2022-10-13T04:03:51.919Z,12.03
2022-10-13T04:06:18.392Z,12.09
2022-10-13T04:08:44.899Z,12.09
2022-10-13T04:11:14.305Z,12.07
2022-10-13T04:13:42.162Z,12.12
2022-10-13T04:16:14.643Z,12.06
2022-10-13T04:18:44.630Z,11.96
2022-10-13T04:21:14.593Z,12.04
2022-10-13T04:23:41.162Z,12.14
2022-10-13T04:26:14.117Z,12.18
2022-10-13T04:28:40.674Z,12.14
2022-10-13T04:31:07.310Z,12.19
2022-10-13T04:33:33.889Z,12.29
2022-10-13T04:36:04.248Z,12.33
2022-10-13T04:38:30.731Z,12.38
2022-10-13T04:40:57.185Z,12.38
2022-10-13T04:43:23.642Z,12.31
2022-10-13T04:45:50.082Z,12.34
2022-10-13T04:48:16.613Z,12.34
2022-10-13T04:50:43.056Z,12.33
2022-10-13T04:53:09.530Z,12.44
2022-10-13T04:55:37.166Z,12.36
2022-10-13T04:58:03.657Z,12.30
2022-10-13T05:00:30.230Z,12.24
2022-10-13T05:02:56.713Z,12.11
2022-10-13T05:05:23.170Z,12.12
2022-10-13T05:07:49.820Z,12.05
2022-10-13T05:10:16.350Z,12.11
2022-10-13T05:12:42.805Z,12.12
2022-10-13T05:15:09.783Z,12.19
2022-10-13T05:17:36.336Z,12.19
2022-10-13T05:20:03.192Z,12.16
2022-10-13T05:22:29.786Z,12.11
2022-10-13T05:24:56.274Z,12.17
2022-10-13T05:27:23.280Z,12.14
2022-10-13T05:29:49.723Z,11.92
2022-10-13T05:32:16.305Z,11.98
2022-10-13T05:34:42.904Z,12.00
2022-10-13T05:37:09.351Z,11.97
2022-10-13T05:39:35.877Z,12.09
2022-10-13T05:42:02.349Z,12.13
2022-10-13T05:44:28.903Z,12.00
2022-10-13T05:46:56.332Z,12.06
2022-10-13T05:49:22.881Z,12.04
2022-10-13T05:51:53.386Z,12.12
2022-10-13T05:54:24.681Z,12.08
2022-10-13T05:56:56.643Z,12.26
2022-10-13T05:59:27.311Z,12.24
2022-10-13T06:01:54.499Z,12.39
2022-10-13T06:04:25.675Z,12.46
2022-10-13T06:06:52.737Z,12.61
2022-10-13T06:09:19.460Z,12.67
2022-10-13T06:11:46.333Z,12.63
2022-10-13T06:14:12.823Z,12.55
2022-10-13T06:16:39.534Z,12.59
2022-10-13T06:19:06.320Z,12.64
2022-10-13T06:21:35.656Z,12.70
2022-10-13T06:24:02.500Z,12.82
2022-10-13T06:26:28.916Z,12.87
2022-10-13T06:28:59.259Z,12.89
2022-10-13T06:31:26.151Z,12.82
2022-10-13T06:33:52.618Z,12.78
2022-10-13T06:36:19.159Z,12.85
2022-10-13T06:38:45.811Z,12.81
2022-10-13T06:41:14.199Z,12.80
2022-10-13T06:43:41.201Z,12.82
2022-10-13T06:46:08.327Z,12.82
2022-10-13T06:48:34.880Z,12.99
2022-10-13T06:51:02.906Z,13.13
2022-10-13T06:53:29.522Z,13.21
2022-10-13T06:55:58.278Z,13.22
2022-10-13T06:58:24.906Z,13.22
2022-10-13T07:00:51.616Z,13.21
2022-10-13T07:03:18.133Z,13.28
2022-10-13T07:05:44.573Z,13.31
2022-10-13T07:08:11.014Z,13.30
2022-10-13T07:10:38.858Z,13.29
2022-10-13T07:13:05.353Z,13.37
2022-10-13T07:15:31.859Z,13.49
2022-10-13T07:17:58.534Z,13.48
2022-10-13T07:20:25.497Z,13.65
2022-10-13T07:22:55.129Z,13.83
2022-10-13T07:25:21.593Z,13.86
2022-10-13T07:27:48.042Z,13.93
2022-10-13T07:30:14.620Z,13.98
2022-10-13T07:32:42.220Z,14.10
2022-10-13T07:35:10.439Z,14.25
2022-10-13T07:37:37.565Z,14.27
2022-10-13T07:40:06.004Z,14.28
2022-10-13T07:42:32.924Z,14.32
2022-10-13T07:44:59.498Z,14.46
2022-10-13T07:47:26.058Z,14.46
2022-10-13T07:49:54.601Z,14.57
2022-10-13T07:52:21.753Z,14.69
2022-10-13T07:54:48.534Z,14.78
2022-10-13T07:57:15.334Z,14.74
2022-10-13T07:59:41.785Z,14.72
2022-10-13T08:02:09.926Z,14.73
2022-10-13T08:04:36.429Z,14.80
2022-10-13T08:07:05.543Z,14.78
2022-10-13T08:09:32.357Z,14.83
2022-10-13T08:12:00.774Z,14.83
2022-10-13T08:14:29.041Z,14.79
2022-10-13T08:16:56.016Z,14.89
2022-10-13T08:19:22.631Z,14.75
2022-10-13T08:21:58.108Z,14.78
2022-10-13T08:24:26.340Z,14.91
2022-10-13T08:26:52.813Z,15.04
2022-10-13T08:29:23.744Z,15.21
2022-10-13T08:31:52.204Z,15.30
2022-10-13T08:34:29.159Z,15.32
2022-10-13T08:36:56.676Z,15.39
2022-10-13T08:39:24.336Z,15.34
2022-10-13T08:41:51.002Z,15.49
2022-10-13T08:47:30.013Z,15.69
2022-10-13T08:50:00.773Z,15.67
2022-10-13T08:52:42.152Z,15.84
2022-10-13T08:55:17.985Z,16.00
2022-10-13T08:57:44.648Z,15.90
2022-10-13T09:00:13.298Z,16.06
2022-10-13T09:02:42.993Z,16.52
2022-10-13T09:05:17.468Z,16.76
2022-10-13T09:07:45.967Z,17.05
2022-10-13T09:10:15.430Z,17.40
2022-10-13T09:12:42.008Z,17.47
2022-10-13T09:15:11.372Z,17.41
2022-10-13T09:17:40.719Z,17.52
2022-10-13T09:20:19.859Z,17.60
2022-10-13T09:23:04.258Z,17.63
2022-10-13T09:25:43.282Z,17.07
2022-10-13T09:28:17.165Z,17.32
2022-10-13T09:30:46.865Z,17.46
2022-10-13T09:33:13.427Z,17.51
2022-10-13T09:35:44.920Z,17.50
2022-10-13T09:38:20.754Z,17.53
2022-10-13T09:41:04.707Z,17.62
2022-10-13T09:43:47.559Z,17.65
2022-10-13T09:46:24.261Z,17.58
2022-10-13T09:48:53.667Z,17.61
2022-10-13T09:51:34.671Z,17.69
2022-10-13T09:54:01.701Z,17.77
2022-10-13T09:56:43.510Z,18.00
2022-10-13T09:59:39.026Z,18.05
2022-10-13T10:02:31.764Z,18.17
2022-10-13T10:05:05.585Z,18.18
2022-10-13T10:07:33.076Z,18.47
2022-10-13T10:10:15.990Z,18.61
2022-10-13T10:12:44.324Z,18.63
2022-10-13T10:15:23.421Z,18.83
2022-10-13T10:17:58.665Z,19.07
2022-10-13T10:20:46.213Z,19.17
2022-10-13T10:23:36.987Z,19.45
2022-10-13T10:26:20.740Z,19.59
2022-10-13T10:29:08.670Z,19.64
2022-10-13T10:31:55.600Z,19.75
2022-10-13T10:34:37.076Z,19.67
2022-10-13T10:37:36.421Z,19.43
2022-10-13T10:40:03.511Z,19.41
2022-10-13T10:42:35.957Z,19.39
2022-10-13T10:45:12.934Z,19.81
2022-10-13T10:47:45.911Z,19.86
2022-10-13T10:50:18.559Z,19.62
2022-10-13T10:52:47.784Z,19.33
2022-10-13T10:55:19.361Z,19.24
2022-10-13T10:57:51.500Z,19.57
2022-10-13T11:00:22.316Z,19.65
2022-10-13T11:03:06.420Z,19.65
2022-10-13T11:05:57.718Z,19.67
2022-10-13T11:08:42.436Z,19.95
2022-10-13T11:11:29.242Z,20.16
2022-10-13T11:14:00.501Z,20.10
2022-10-13T11:16:36.049Z,20.04
2022-10-13T11:19:08.503Z,19.61
2022-10-13T11:21:59.134Z,19.36
2022-10-13T11:24:50.896Z,19.46
2022-10-13T11:27:41.621Z,19.48
2022-10-13T11:30:41.499Z,19.55
2022-10-13T11:33:32.820Z,19.59
2022-10-13T11:36:39.555Z,19.73
2022-10-13T11:39:27.849Z,19.79
2022-10-13T11:42:17.036Z,19.97
2022-10-13T11:45:06.649Z,19.96
2022-10-13T11:48:04.230Z,20.00
2022-10-13T11:51:08.820Z,19.88
2022-10-13T11:54:21.574Z,20.04
2022-10-13T11:56:56.858Z,19.95
2022-10-13T11:59:37.661Z,20.05
2022-10-13T12:02:25.009Z,20.27
2022-10-13T12:05:05.212Z,20.21
2022-10-13T12:07:37.424Z,20.16
2022-10-13T12:10:07.374Z,20.51
2022-10-13T12:12:34.098Z,20.31
2022-10-13T12:15:04.152Z,20.16
2022-10-13T12:17:41.219Z,20.20
2022-10-13T12:20:23.292Z,20.12
2022-10-13T12:22:51.309Z,19.98
2022-10-13T12:25:30.019Z,19.69
2022-10-13T12:27:59.678Z,19.75
2022-10-13T12:30:32.149Z,19.87
2022-10-13T12:33:00.742Z,19.79
2022-10-13T12:35:30.026Z,19.68
2022-10-13T12:37:58.080Z,19.45
2022-10-13T12:40:25.299Z,19.28
2022-10-13T12:42:52.096Z,19.51
2022-10-13T12:45:21.788Z,19.39
2022-10-13T12:47:51.853Z,19.36
2022-10-13T12:50:30.183Z,19.41
2022-10-13T12:53:24.184Z,19.32
2022-10-13T12:55:53.433Z,19.29
2022-10-13T12:58:30.226Z,19.32
2022-10-13T13:01:03.509Z,19.37
2022-10-13T13:03:30.548Z,19.29
2022-10-13T13:06:10.761Z,19.32
2022-10-13T13:08:39.945Z,19.30
2022-10-13T13:11:18.490Z,19.45
2022-10-13T13:13:45.066Z,19.59
2022-10-13T13:16:20.553Z,19.69
2022-10-13T13:18:49.382Z,19.74
2022-10-13T13:21:18.289Z,19.76
2022-10-13T13:23:51.222Z,19.61
2022-10-13T13:26:22.448Z,19.49
2022-10-13T13:28:51.661Z,19.45
2022-10-13T13:31:19.773Z,19.38
2022-10-13T13:33:47.069Z,19.23
2022-10-13T13:36:17.118Z,19.36
2022-10-13T13:38:44.117Z,19.37
2022-10-13T13:41:11.767Z,19.45
2022-10-13T13:43:39.135Z,19.60
2022-10-13T13:46:07.359Z,19.67
2022-10-13T13:48:34.010Z,19.66
2022-10-13T13:51:00.570Z,19.49
2022-10-13T13:53:27.022Z,19.59
2022-10-13T13:55:53.542Z,19.58
2022-10-13T13:58:20.754Z,19.68
2022-10-13T14:00:47.534Z,19.59
2022-10-13T14:03:19.161Z,19.49
2022-10-13T14:05:45.869Z,19.34
2022-10-13T14:08:12.335Z,19.16
2022-10-13T14:10:41.788Z,19.06
2022-10-13T14:13:08.252Z,19.06
2022-10-13T14:15:34.793Z,19.04
2022-10-13T14:18:01.255Z,18.91
2022-10-13T14:20:27.762Z,18.87
2022-10-13T14:22:54.268Z,18.93
2022-10-13T14:25:20.746Z,19.00
2022-10-13T14:27:47.188Z,19.00
2022-10-13T14:30:14.355Z,18.98
2022-10-13T14:32:40.906Z,19.13
2022-10-13T14:35:07.849Z,19.11
2022-10-13T14:37:34.737Z,19.21
2022-10-13T14:40:01.917Z,19.11
2022-10-13T14:42:28.408Z,19.02
2022-10-13T14:44:55.018Z,18.93
2022-10-13T14:47:21.948Z,18.89
2022-10-13T14:49:48.636Z,18.77
2022-10-13T14:52:15.054Z,18.71
2022-10-13T14:54:44.876Z,18.57
2022-10-13T14:57:15.691Z,18.48
2022-10-13T14:59:43.592Z,18.43
2022-10-13T15:02:13.831Z,18.31
2022-10-13T15:04:40.299Z,18.40
2022-10-13T15:07:06.765Z,18.38
2022-10-13T15:09:45.278Z,18.35
2022-10-13T15:12:20.168Z,18.23
2022-10-13T15:14:46.732Z,18.07
2022-10-13T15:17:13.247Z,18.00
2022-10-13T15:19:39.654Z,17.95
2022-10-13T15:22:06.292Z,17.95
2022-10-13T15:24:32.730Z,17.86
2022-10-13T15:26:59.158Z,17.91
2022-10-13T15:29:25.686Z,17.84
2022-10-13T15:31:52.147Z,17.71
2022-10-13T15:34:18.567Z,17.65
2022-10-13T15:36:45.247Z,17.49
2022-10-13T15:39:11.743Z,17.46
2022-10-13T15:41:38.172Z,17.36
2022-10-13T15:44:04.669Z,17.37
2022-10-13T15:46:31.570Z,17.23
2022-10-13T15:48:59.884Z,17.18
2022-10-13T15:51:27.093Z,17.11
2022-10-13T15:53:55.131Z,17.13
2022-10-13T15:56:21.574Z,17.05
2022-10-13T15:58:48.030Z,17.02
2022-10-13T16:01:14.916Z,16.89
2022-10-13T16:03:42.004Z,16.85
2022-10-13T16:06:10.740Z,16.82
2022-10-13T16:08:39.551Z,16.72
2022-10-13T16:11:15.787Z,16.69
2022-10-13T16:13:46.395Z,16.67
2022-10-13T16:16:12.972Z,16.65
2022-10-13T16:18:40.482Z,16.64
2022-10-13T16:21:15.795Z,16.62
2022-10-13T16:23:45.065Z,16.47
2022-10-13T16:26:11.619Z,16.40
2022-10-13T16:28:38.690Z,16.20
2022-10-13T16:31:13.946Z,16.10
2022-10-13T16:33:41.469Z,16.09
2022-10-13T16:36:11.051Z,16.04
2022-10-13T16:38:37.905Z,15.92
2022-10-13T16:41:09.885Z,15.90
2022-10-13T16:43:36.402Z,15.96
2022-10-13T16:46:04.805Z,15.96
2022-10-13T16:48:32.279Z,15.87
2022-10-13T16:51:00.779Z,15.90
2022-10-13T16:53:27.215Z,15.93
2022-10-13T16:55:53.692Z,15.96
2022-10-13T16:58:20.129Z,16.00
2022-10-13T17:00:46.808Z,16.02
2022-10-13T17:03:13.363Z,15.95
2022-10-13T17:05:39.796Z,15.93
2022-10-13T17:08:06.356Z,16.06
2022-10-13T17:10:34.558Z,16.02
2022-10-13T17:13:01.513Z,16.01
2022-10-13T17:15:27.989Z,16.05
2022-10-13T17:17:54.518Z,16.02
2022-10-13T17:20:20.965Z,15.95
2022-10-13T17:22:47.437Z,15.96
2022-10-13T17:25:13.951Z,15.98
2022-10-13T17:27:40.499Z,15.94
2022-10-13T17:30:07.431Z,15.93
2022-10-13T17:32:38.654Z,15.85
2022-10-13T17:35:06.228Z,15.78
2022-10-13T17:37:32.736Z,15.76
2022-10-13T17:39:59.154Z,15.61
2022-10-13T17:42:25.625Z,15.50
2022-10-13T17:44:52.060Z,15.49
2022-10-13T17:47:18.823Z,15.51
2022-10-13T17:52:11.997Z,15.52
2022-10-13T17:54:38.413Z,15.57
2022-10-13T17:57:05.559Z,15.59
2022-10-13T17:59:32.167Z,15.62
2022-10-13T18:01:58.685Z,15.57
2022-10-13T18:04:25.165Z,15.49
2022-10-13T18:06:51.576Z,15.52
2022-10-13T18:09:20.688Z,15.50
2022-10-13T18:11:51.579Z,15.47
2022-10-13T18:14:22.947Z,15.50
2022-10-13T18:16:50.823Z,15.49
2022-10-13T18:19:17.613Z,15.52
2022-10-13T18:21:44.218Z,15.42
2022-10-13T18:24:11.765Z,15.44
2022-10-13T18:26:38.609Z,15.33
2022-10-13T18:29:06.903Z,15.23
2022-10-13T18:31:35.518Z,15.32
2022-10-13T18:34:04.856Z,15.34
2022-10-13T18:36:35.280Z,15.22
2022-10-13T18:39:10.812Z,15.17
2022-10-13T18:41:37.942Z,15.19
2022-10-13T18:44:05.108Z,15.27
2022-10-13T18:46:35.656Z,15.27
2022-10-13T18:49:03.151Z,15.48
2022-10-13T18:51:35.593Z,15.48
2022-10-13T18:54:02.815Z,15.38
2022-10-13T18:56:30.780Z,15.54
2022-10-13T18:58:59.977Z,15.48
2022-10-13T19:01:29.594Z,15.46
2022-10-13T19:03:56.927Z,15.55
2022-10-13T19:06:27.017Z,15.51
2022-10-13T19:08:58.634Z,15.44
2022-10-13T19:11:25.394Z,15.38
2022-10-13T19:13:52.411Z,15.55
2022-10-13T19:16:21.541Z,15.52
2022-10-13T19:18:49.445Z,15.55
2022-10-13T19:21:16.698Z,15.62
2022-10-13T19:23:43.471Z,15.61
2022-10-13T19:26:16.141Z,15.55
2022-10-13T19:28:43.750Z,15.51
2022-10-13T19:31:15.942Z,15.47
2022-10-13T19:33:44.722Z,15.50
2022-10-13T19:36:19.355Z,15.37
2022-10-13T19:38:45.959Z,15.32
2022-10-13T19:41:12.416Z,15.35
2022-10-13T19:43:38.900Z,15.45
2022-10-13T19:46:07.594Z,15.46
2022-10-13T19:48:34.485Z,15.39
2022-10-13T19:51:03.869Z,15.41
2022-10-13T19:53:30.358Z,15.46
2022-10-13T19:55:56.873Z,15.42
2022-10-13T19:58:23.787Z,15.38
2022-10-13T20:00:50.311Z,15.39
2022-10-13T20:03:16.832Z,15.30
2022-10-13T20:05:43.877Z,15.36
2022-10-13T20:08:11.892Z,15.25
2022-10-13T20:10:40.272Z,15.23
2022-10-13T20:13:07.290Z,15.18
2022-10-13T20:15:33.898Z,15.23
2022-10-13T20:18:00.597Z,15.21
2022-10-13T20:20:27.485Z,15.34
2022-10-13T20:22:53.971Z,15.29
2022-10-13T20:25:20.512Z,15.16
2022-10-13T20:27:47.479Z,15.32
2022-10-13T20:30:14.438Z,15.35
2022-10-13T20:32:41.168Z,15.26
2022-10-13T20:35:08.100Z,15.19
2022-10-13T20:37:34.862Z,15.17
2022-10-13T20:40:01.672Z,15.10
2022-10-13T20:42:28.345Z,15.18
2022-10-13T20:44:55.084Z,15.12
2022-10-13T20:47:21.814Z,15.19
2022-10-13T20:49:48.555Z,15.22
2022-10-13T20:52:15.091Z,15.27
2022-10-13T20:54:41.610Z,15.24
2022-10-13T20:57:08.120Z,15.18
2022-10-13T20:59:34.606Z,15.16
2022-10-13T21:02:01.067Z,15.09
2022-10-13T21:04:27.675Z,15.14
2022-10-13T21:06:54.178Z,14.99
2022-10-13T21:09:20.912Z,15.15
2022-10-13T21:11:47.379Z,15.11
2022-10-13T21:14:13.861Z,15.06
2022-10-13T21:16:40.486Z,15.05
2022-10-13T21:19:07.397Z,15.03
2022-10-13T21:21:34.778Z,15.11
2022-10-13T21:24:05.094Z,15.12
2022-10-13T21:26:32.740Z,15.13
2022-10-13T21:29:00.737Z,15.12
2022-10-13T21:31:31.295Z,15.07
2022-10-13T21:33:57.999Z,15.00
2022-10-13T21:36:30.140Z,15.04
2022-10-13T21:38:59.791Z,15.04
2022-10-13T21:41:27.311Z,15.01
2022-10-13T21:43:54.609Z,14.98
2022-10-13T21:46:28.111Z,15.08
2022-10-13T21:48:59.447Z,15.05
2022-10-13T21:51:29.605Z,15.03
2022-10-13T21:53:58.833Z,14.97
2022-10-13T21:56:26.417Z,14.87
2022-10-13T21:58:53.880Z,14.88
2022-10-13T22:01:20.935Z,14.81
2022-10-13T22:03:48.557Z,14.86
2022-10-13T22:06:18.979Z,14.78
2022-10-13T22:08:48.922Z,14.87
2022-10-13T22:11:16.391Z,14.94
2022-10-13T22:13:43.127Z,14.92
2022-10-13T22:16:18.692Z,14.86
2022-10-13T22:18:46.390Z,14.87
2022-10-13T22:21:19.100Z,14.82
2022-10-13T22:23:46.291Z,14.79
2022-10-13T22:26:14.813Z,14.77
2022-10-13T22:28:41.586Z,14.74
2022-10-13T22:31:12.799Z,14.68
2022-10-13T22:33:41.141Z,14.69
2022-10-13T22:36:17.501Z,14.88
2022-10-13T22:38:45.277Z,14.85
2022-10-13T22:41:14.643Z,14.75
2022-10-13T22:43:44.136Z,14.80
2022-10-13T22:46:12.326Z,14.79
2022-10-13T22:48:40.909Z,14.69
2022-10-13T22:51:08.135Z,14.90
2022-10-13T22:53:34.733Z,14.90
2022-10-13T22:56:05.410Z,14.83
2022-10-13T22:58:31.941Z,14.85
2022-10-13T23:01:04.703Z,14.87
2022-10-13T23:03:31.261Z,14.89
2022-10-13T23:05:57.750Z,14.79
2022-10-13T23:08:24.282Z,14.79
2022-10-13T23:10:50.800Z,14.74
2022-10-13T23:13:17.410Z,14.81
2022-10-13T23:15:43.844Z,14.80
2022-10-13T23:18:10.320Z,14.74
2022-10-13T23:20:43.385Z,14.69
2022-10-13T23:23:10.078Z,14.72
2022-10-13T23:25:37.514Z,14.80
2022-10-13T23:28:04.690Z,14.75
2022-10-13T23:30:31.178Z,14.73
2022-10-13T23:32:57.655Z,14.84
2022-10-13T23:35:24.226Z,14.84
2022-10-13T23:37:52.626Z,14.76
2022-10-13T23:40:19.260Z,14.71
2022-10-13T23:42:45.836Z,14.69
2022-10-13T23:45:12.322Z,14.62
2022-10-13T23:47:38.863Z,14.56
2022-10-13T23:50:05.859Z,14.49
2022-10-13T23:52:32.331Z,14.49
2022-10-13T23:54:58.823Z,14.45
2022-10-13T23:57:25.349Z,14.53
2022-10-13T23:59:51.930Z,14.39
